createdAt,value
2022-11-17T00:01:20.029Z,100.00
2022-11-17T00:03:48.484Z,100.00
2022-11-17T00:06:16.190Z,100.00
2022-11-17T00:08:42.815Z,100.00
2022-11-17T00:11:09.677Z,100.00
2022-11-17T00:13:54.905Z,100.00
2022-11-17T00:16:21.992Z,100.00
2022-11-17T00:19:07.847Z,100.00
2022-11-17T00:21:34.985Z,100.00
2022-11-17T00:24:01.696Z,100.00
2022-11-17T00:26:29.659Z,100.00
2022-11-17T00:29:06.910Z,100.00
2022-11-17T00:31:53.220Z,100.00
2022-11-17T00:34:22.143Z,100.00
2022-11-17T00:36:53.792Z,100.00
2022-11-17T00:39:22.189Z,100.00
2022-11-17T00:41:48.875Z,100.00
2022-11-17T00:44:16.158Z,100.00
2022-11-17T00:46:43.412Z,100.00
2022-11-17T00:49:11.350Z,100.00
2022-11-17T00:51:38.831Z,100.00
2022-11-17T00:54:07.507Z,100.00
2022-11-17T00:56:34.465Z,100.00
2022-11-17T00:59:01.311Z,100.00
2022-11-17T01:01:28.384Z,100.00
2022-11-17T01:04:04.223Z,100.00
2022-11-17T01:06:31.273Z,100.00
2022-11-17T01:09:02.554Z,100.00
2022-11-17T01:11:29.241Z,100.00
2022-11-17T01:13:58.543Z,100.00
2022-11-17T01:16:25.732Z,100.00
2022-11-17T01:18:53.290Z,100.00
2022-11-17T01:21:22.731Z,100.00
2022-11-17T01:23:51.043Z,100.00
2022-11-17T01:26:20.535Z,100.00
2022-11-17T01:28:48.330Z,100.00
2022-11-17T01:31:27.342Z,100.00
2022-11-17T01:33:54.964Z,100.00
2022-11-17T01:36:29.070Z,100.00
2022-11-17T01:38:55.822Z,100.00
2022-11-17T01:41:27.872Z,100.00
2022-11-17T01:43:57.331Z,100.00
2022-11-17T01:46:33.354Z,100.00
2022-11-17T01:49:14.830Z,100.00
2022-11-17T01:51:48.318Z,100.00
2022-11-17T01:54:20.300Z,100.00
2022-11-17T01:56:54.199Z,100.00
2022-11-17T01:59:29.864Z,100.00
2022-11-17T02:01:56.861Z,100.00
2022-11-17T02:04:31.171Z,100.00
2022-11-17T02:07:19.549Z,100.00
2022-11-17T02:09:46.726Z,100.00
2022-11-17T02:12:15.352Z,100.00
2022-11-17T02:14:42.053Z,100.00
2022-11-17T02:17:13.987Z,100.00
2022-11-17T02:19:44.426Z,100.00
2022-11-17T02:22:29.848Z,100.00
2022-11-17T02:25:08.335Z,100.00
2022-11-17T02:27:41.077Z,100.00
2022-11-17T02:30:15.535Z,100.00
2022-11-17T02:33:03.402Z,100.00
2022-11-17T02:35:40.346Z,100.00
2022-11-17T02:38:25.252Z,100.00
2022-11-17T02:41:29.325Z,100.00
2022-11-17T02:44:16.498Z,100.00
2022-11-17T02:46:53.664Z,100.00
2022-11-17T02:49:29.200Z,100.00
2022-11-17T02:51:58.663Z,100.00
2022-11-17T02:54:28.938Z,100.00
2022-11-17T02:56:55.577Z,100.00
2022-11-17T02:59:36.329Z,100.00
2022-11-17T03:02:34.954Z,100.00
2022-11-17T03:05:34.405Z,100.00
2022-11-17T03:08:13.059Z,100.00
2022-11-17T03:10:48.565Z,100.00
2022-11-17T03:13:18.295Z,100.00
2022-11-17T03:16:02.865Z,100.00
2022-11-17T03:18:35.286Z,100.00
2022-11-17T03:21:26.504Z,100.00
2022-11-17T03:24:08.450Z,100.00
2022-11-17T03:26:39.019Z,100.00
2022-11-17T03:29:10.625Z,100.00
2022-11-17T03:31:39.552Z,100.00
2022-11-17T03:34:13.338Z,100.00
2022-11-17T03:36:46.841Z,100.00
2022-11-17T03:39:24.978Z,100.00
2022-11-17T03:41:58.472Z,100.00
2022-11-17T03:44:29.149Z,100.00
2022-11-17T03:46:59.628Z,100.00
2022-11-17T03:49:51.544Z,100.00
2022-11-17T03:52:19.009Z,100.00
2022-11-17T03:54:45.694Z,100.00
2022-11-17T03:57:32.924Z,100.00
2022-11-17T04:00:04.970Z,100.00
2022-11-17T04:02:31.714Z,100.00
2022-11-17T04:05:07.474Z,100.00
2022-11-17T04:07:36.543Z,100.00
2022-11-17T04:10:05.075Z,100.00
2022-11-17T04:12:50.360Z,100.00
2022-11-17T04:15:36.193Z,100.00
2022-11-17T04:18:04.371Z,100.00
2022-11-17T04:20:36.050Z,100.00
2022-11-17T04:23:08.928Z,100.00
2022-11-17T04:25:59.738Z,100.00
2022-11-17T04:28:37.464Z,100.00
2022-11-17T04:31:27.564Z,100.00
2022-11-17T04:33:55.360Z,100.00
2022-11-17T04:36:25.216Z,100.00
2022-11-17T04:38:54.638Z,100.00
2022-11-17T04:41:41.412Z,100.00
2022-11-17T04:44:09.807Z,100.00
2022-11-17T04:46:37.388Z,100.00
2022-11-17T04:49:05.335Z,100.00
2022-11-17T04:51:33.472Z,100.00
2022-11-17T04:54:01.157Z,100.00
2022-11-17T04:56:29.228Z,100.00
2022-11-17T04:58:56.455Z,100.00
2022-11-17T05:01:24.149Z,100.00
2022-11-17T05:04:12.200Z,100.00
2022-11-17T05:06:41.599Z,100.00
2022-11-17T05:09:14.967Z,100.00
2022-11-17T05:12:01.020Z,100.00
2022-11-17T05:14:28.819Z,100.00
2022-11-17T05:17:11.890Z,100.00
2022-11-17T05:19:42.387Z,100.00
2022-11-17T05:22:28.922Z,100.00
2022-11-17T05:24:56.238Z,100.00
2022-11-17T05:27:23.949Z,100.00
2022-11-17T05:29:50.564Z,100.00
2022-11-17T05:32:17.676Z,100.00
2022-11-17T05:34:44.309Z,100.00
2022-11-17T05:37:10.996Z,100.00
2022-11-17T05:39:37.679Z,100.00
2022-11-17T05:42:04.773Z,100.00
2022-11-17T05:44:31.525Z,100.00
2022-11-17T05:46:58.151Z,100.00
2022-11-17T05:49:24.805Z,100.00
2022-11-17T05:51:52.969Z,100.00
2022-11-17T05:54:20.355Z,100.00
2022-11-17T05:56:51.645Z,100.00
2022-11-17T05:59:28.428Z,100.00
2022-11-17T06:02:09.463Z,100.00
2022-11-17T06:04:36.494Z,100.00
2022-11-17T06:07:03.553Z,100.00
2022-11-17T06:09:37.154Z,100.00
2022-11-17T06:12:06.206Z,100.00
2022-11-17T06:14:34.488Z,100.00
2022-11-17T06:17:06.193Z,100.00
2022-11-17T06:19:42.099Z,100.00
2022-11-17T06:22:12.639Z,100.00
2022-11-17T06:24:42.135Z,100.00
2022-11-17T06:27:10.810Z,100.00
2022-11-17T06:29:43.707Z,100.00
2022-11-17T06:32:13.258Z,100.00
2022-11-17T06:34:40.027Z,100.00
2022-11-17T06:37:06.668Z,100.00
2022-11-17T06:39:33.374Z,100.00
2022-11-17T06:42:00.026Z,100.00
2022-11-17T06:44:26.612Z,100.00
2022-11-17T06:46:53.250Z,100.00
2022-11-17T06:49:19.880Z,100.00
2022-11-17T06:51:46.468Z,100.00
2022-11-17T06:54:14.881Z,100.00
2022-11-17T06:56:42.013Z,100.00
2022-11-17T06:59:08.769Z,100.00
2022-11-17T07:01:37.014Z,100.00
2022-11-17T07:04:03.783Z,100.00
2022-11-17T07:06:30.565Z,100.00
2022-11-17T07:08:57.221Z,100.00
2022-11-17T07:11:23.865Z,100.00
2022-11-17T07:13:50.525Z,100.00
2022-11-17T07:16:23.193Z,100.00
2022-11-17T07:18:52.079Z,100.00
2022-11-17T07:21:18.946Z,100.00
2022-11-17T07:23:46.162Z,100.00
2022-11-17T07:26:12.927Z,100.00
2022-11-17T07:28:39.668Z,100.00
2022-11-17T07:31:08.160Z,100.00
2022-11-17T07:33:35.562Z,100.00
2022-11-17T07:36:09.751Z,95.51
2022-11-17T07:38:38.383Z,85.77
2022-11-17T07:41:06.784Z,81.45
2022-11-17T07:43:34.538Z,85.66
2022-11-17T07:46:05.513Z,87.30
2022-11-17T07:48:32.865Z,94.93
2022-11-17T07:51:00.501Z,96.74
2022-11-17T07:53:27.909Z,96.94
2022-11-17T07:55:55.495Z,93.42
2022-11-17T07:58:22.166Z,93.24
2022-11-17T08:00:48.890Z,92.91
2022-11-17T08:03:15.626Z,94.21
2022-11-17T08:05:43.766Z,95.41
2022-11-17T08:08:13.044Z,96.38
2022-11-17T08:10:39.810Z,97.93
2022-11-17T08:13:07.556Z,100.00
2022-11-17T08:15:34.986Z,100.00
2022-11-17T08:18:03.220Z,100.00
2022-11-17T08:20:29.961Z,100.00
2022-11-17T08:22:56.907Z,100.00
2022-11-17T08:25:25.726Z,100.00
2022-11-17T08:27:57.806Z,100.00
2022-11-17T08:30:26.015Z,100.00
2022-11-17T08:32:54.507Z,100.00
2022-11-17T08:35:23.616Z,100.00
2022-11-17T08:37:50.413Z,100.00
2022-11-17T08:40:20.175Z,100.00
2022-11-17T08:42:53.835Z,100.00
2022-11-17T08:45:22.995Z,100.00
2022-11-17T08:47:49.695Z,100.00
2022-11-17T08:50:18.010Z,100.00
2022-11-17T08:52:44.880Z,100.00
2022-11-17T08:55:11.653Z,100.00
2022-11-17T08:57:38.836Z,100.00
2022-11-17T09:00:06.866Z,99.71
2022-11-17T09:02:33.583Z,100.00
2022-11-17T09:05:00.359Z,100.00
2022-11-17T09:07:30.640Z,100.00
2022-11-17T09:10:02.283Z,100.00
2022-11-17T09:12:29.070Z,100.00
2022-11-17T09:14:55.827Z,99.87
2022-11-17T09:17:23.670Z,100.00
2022-11-17T09:19:50.342Z,100.00
2022-11-17T09:22:17.091Z,100.00
2022-11-17T09:24:43.759Z,100.00
2022-11-17T09:27:10.373Z,100.00
2022-11-17T09:29:37.046Z,100.00
2022-11-17T09:32:03.795Z,100.00
2022-11-17T09:34:30.584Z,98.94
2022-11-17T09:36:57.282Z,95.33
2022-11-17T09:39:23.937Z,92.76
2022-11-17T09:41:53.056Z,94.85
2022-11-17T09:44:31.800Z,93.98
2022-11-17T09:47:10.580Z,90.33
2022-11-17T09:50:02.974Z,88.50
2022-11-17T09:52:29.621Z,87.78
2022-11-17T09:55:00.452Z,88.07
2022-11-17T09:57:41.289Z,86.02
2022-11-17T10:00:11.298Z,83.09
2022-11-17T10:02:38.048Z,78.54
2022-11-17T10:05:05.293Z,75.05
2022-11-17T10:07:34.804Z,73.34
2022-11-17T10:10:03.681Z,72.46
2022-11-17T10:12:44.446Z,73.39
2022-11-17T10:15:24.357Z,72.54
2022-11-17T10:17:51.601Z,70.87
2022-11-17T10:20:18.995Z,66.10
2022-11-17T10:22:47.445Z,62.31
2022-11-17T10:25:36.766Z,64.57
2022-11-17T10:28:05.863Z,62.32
2022-11-17T10:30:32.658Z,60.79
2022-11-17T10:33:03.938Z,61.30
2022-11-17T10:35:33.912Z,60.19
2022-11-17T10:38:20.782Z,60.54
2022-11-17T10:40:52.342Z,57.83
2022-11-17T10:43:36.789Z,53.63
2022-11-17T10:46:05.129Z,50.95
2022-11-17T10:48:35.821Z,51.62
2022-11-17T10:51:21.762Z,57.67
2022-11-17T10:54:05.454Z,55.35
2022-11-17T10:56:40.096Z,53.93
2022-11-17T10:59:09.561Z,55.91
2022-11-17T11:01:38.221Z,55.65
2022-11-17T11:04:07.301Z,56.23
2022-11-17T11:06:35.793Z,59.29
2022-11-17T11:09:11.505Z,53.73
2022-11-17T11:11:43.267Z,54.75
2022-11-17T11:14:27.945Z,54.69
2022-11-17T11:16:55.096Z,60.77
2022-11-17T11:19:21.917Z,59.40
2022-11-17T11:22:03.792Z,58.58
2022-11-17T11:24:52.981Z,58.15
2022-11-17T11:27:32.543Z,58.56
2022-11-17T11:30:05.649Z,57.13
2022-11-17T11:32:50.781Z,57.67
2022-11-17T11:35:44.914Z,65.84
2022-11-17T11:38:25.090Z,57.35
2022-11-17T11:41:19.754Z,54.59
2022-11-17T11:43:59.233Z,53.78
2022-11-17T11:47:03.107Z,54.95
2022-11-17T11:50:02.652Z,54.92
2022-11-17T11:52:34.769Z,53.08
2022-11-17T11:55:17.369Z,54.89
2022-11-17T11:57:56.430Z,57.23
2022-11-17T12:00:23.227Z,57.75
2022-11-17T12:03:02.961Z,58.46
2022-11-17T12:05:36.630Z,61.54
2022-11-17T12:08:12.914Z,61.04
2022-11-17T12:11:26.266Z,59.48
2022-11-17T12:13:54.618Z,61.18
2022-11-17T12:16:31.172Z,60.68
2022-11-17T12:18:58.375Z,61.04
2022-11-17T12:21:26.675Z,59.79
2022-11-17T12:24:11.370Z,60.10
2022-11-17T12:26:38.427Z,59.62
2022-11-17T12:29:20.119Z,59.53
2022-11-17T12:32:00.915Z,60.89
2022-11-17T12:34:31.915Z,59.61
2022-11-17T12:37:18.878Z,60.21
2022-11-17T12:39:55.888Z,60.51
2022-11-17T12:42:22.796Z,60.40
2022-11-17T12:44:55.447Z,60.96
2022-11-17T12:47:28.211Z,61.29
2022-11-17T12:50:18.922Z,61.27
2022-11-17T12:53:00.485Z,61.23
2022-11-17T12:55:33.129Z,61.60
2022-11-17T12:58:36.924Z,61.18
2022-11-17T13:01:20.170Z,60.56
2022-11-17T13:03:50.476Z,59.99
2022-11-17T13:06:34.854Z,61.03
2022-11-17T13:09:11.310Z,61.02
2022-11-17T13:11:38.194Z,61.77
2022-11-17T13:14:12.719Z,61.29
2022-11-17T13:16:47.340Z,60.99
2022-11-17T13:19:43.912Z,60.46
2022-11-17T13:22:14.896Z,61.57
2022-11-17T13:24:44.202Z,59.98
2022-11-17T13:27:26.493Z,60.65
2022-11-17T13:30:31.758Z,59.21
2022-11-17T13:33:02.261Z,59.24
2022-11-17T13:35:32.950Z,60.66
2022-11-17T13:38:04.648Z,59.45
2022-11-17T13:40:33.845Z,58.77
2022-11-17T13:43:02.744Z,59.58
2022-11-17T13:45:29.454Z,59.25
2022-11-17T13:47:58.233Z,60.76
2022-11-17T13:50:27.688Z,59.93
2022-11-17T13:53:19.305Z,59.54
2022-11-17T13:55:47.140Z,59.31
2022-11-17T13:58:41.084Z,60.45
2022-11-17T14:01:12.078Z,61.64
2022-11-17T14:03:42.002Z,62.10
2022-11-17T14:06:11.428Z,62.11
2022-11-17T14:08:40.019Z,62.70
2022-11-17T14:11:10.767Z,63.95
2022-11-17T14:13:40.297Z,64.14
2022-11-17T14:16:22.896Z,66.08
2022-11-17T14:19:01.932Z,67.33
2022-11-17T14:21:29.817Z,68.58
2022-11-17T14:24:10.437Z,69.61
2022-11-17T14:26:44.509Z,71.13
2022-11-17T14:29:12.932Z,68.39
2022-11-17T14:31:40.072Z,65.94
2022-11-17T14:34:06.735Z,65.39
2022-11-17T14:36:33.568Z,65.16
2022-11-17T14:39:01.117Z,64.96
2022-11-17T14:41:27.757Z,65.27
2022-11-17T14:43:54.510Z,65.63
2022-11-17T14:46:26.322Z,65.96
2022-11-17T14:48:53.984Z,66.71
2022-11-17T14:51:21.647Z,66.68
2022-11-17T14:53:48.726Z,66.51
2022-11-17T14:56:18.213Z,67.40
2022-11-17T14:58:46.736Z,67.53
2022-11-17T15:01:19.049Z,67.92
2022-11-17T15:03:45.946Z,68.26
2022-11-17T15:06:19.465Z,67.89
2022-11-17T15:08:47.865Z,68.16
2022-11-17T15:11:17.465Z,68.53
2022-11-17T15:13:44.217Z,68.80
2022-11-17T15:16:11.527Z,68.87
2022-11-17T15:18:38.337Z,68.81
2022-11-17T15:21:10.466Z,69.20
2022-11-17T15:23:38.613Z,68.51
2022-11-17T15:26:12.092Z,69.00
2022-11-17T15:28:38.744Z,68.87
2022-11-17T15:31:23.797Z,69.65
2022-11-17T15:33:50.464Z,69.73
2022-11-17T15:36:19.554Z,69.39
2022-11-17T15:38:47.681Z,69.36
2022-11-17T15:41:15.888Z,69.94
2022-11-17T15:43:43.973Z,70.88
2022-11-17T15:46:13.661Z,71.30
2022-11-17T15:48:43.326Z,71.82
2022-11-17T15:51:17.824Z,71.93
2022-11-17T15:53:46.510Z,72.72
2022-11-17T15:56:25.900Z,71.94
2022-11-17T15:59:03.497Z,72.82
2022-11-17T16:01:35.602Z,74.31
2022-11-17T16:04:07.537Z,73.57
2022-11-17T16:06:36.903Z,75.46
2022-11-17T16:09:04.971Z,76.59
2022-11-17T16:11:31.734Z,73.38
2022-11-17T16:13:59.622Z,73.93
2022-11-17T16:16:30.009Z,75.11
2022-11-17T16:18:57.282Z,74.57
2022-11-17T16:21:24.353Z,74.08
2022-11-17T16:23:54.590Z,74.26
2022-11-17T16:26:22.749Z,74.96
2022-11-17T16:28:49.694Z,75.07
2022-11-17T16:31:21.641Z,75.65
2022-11-17T16:33:50.158Z,76.23
2022-11-17T16:36:21.687Z,76.36
2022-11-17T16:39:01.878Z,76.78
2022-11-17T16:41:31.680Z,77.21
2022-11-17T16:43:58.929Z,78.30
2022-11-17T16:46:30.541Z,78.66
2022-11-17T16:49:01.605Z,80.38
2022-11-17T16:51:28.442Z,80.70
2022-11-17T16:53:57.524Z,80.83
2022-11-17T16:56:24.256Z,81.26
2022-11-17T16:58:51.603Z,80.91
2022-11-17T17:01:20.594Z,80.62
2022-11-17T17:03:47.328Z,80.66
2022-11-17T17:06:16.994Z,80.98
2022-11-17T17:08:43.899Z,80.89
2022-11-17T17:11:13.716Z,81.31
2022-11-17T17:13:43.073Z,81.21
2022-11-17T17:16:15.359Z,81.84
2022-11-17T17:18:43.077Z,82.74
2022-11-17T17:21:16.038Z,81.94
2022-11-17T17:23:43.261Z,83.50
2022-11-17T17:26:14.300Z,83.99
2022-11-17T17:28:43.706Z,84.53
2022-11-17T17:31:14.340Z,84.49
2022-11-17T17:33:45.413Z,83.99
2022-11-17T17:36:15.810Z,85.19
2022-11-17T17:38:42.888Z,85.20
2022-11-17T17:41:14.933Z,85.28
2022-11-17T17:43:42.402Z,85.63
2022-11-17T17:46:16.808Z,86.47
2022-11-17T17:48:45.151Z,86.63
2022-11-17T17:51:15.022Z,86.46
2022-11-17T17:53:42.429Z,87.15
2022-11-17T17:56:11.725Z,86.35
2022-11-17T17:58:42.287Z,87.13
2022-11-17T18:01:11.618Z,88.36
2022-11-17T18:03:40.038Z,84.55
2022-11-17T18:06:07.693Z,81.60
2022-11-17T18:08:36.429Z,79.92
2022-11-17T18:11:08.420Z,80.40
2022-11-17T18:13:37.636Z,80.29
2022-11-17T18:16:06.294Z,80.92
2022-11-17T18:18:33.936Z,82.65
2022-11-17T18:21:08.797Z,82.28
2022-11-17T18:23:36.740Z,85.06
2022-11-17T18:26:16.283Z,89.99
2022-11-17T18:28:45.056Z,90.73
2022-11-17T18:31:11.701Z,89.88
2022-11-17T18:33:38.522Z,92.06
2022-11-17T18:36:07.701Z,91.45
2022-11-17T18:38:36.429Z,92.53
2022-11-17T18:41:08.458Z,93.72
2022-11-17T18:43:35.808Z,91.28
2022-11-17T18:46:03.314Z,91.83
2022-11-17T18:48:31.896Z,93.59
2022-11-17T18:51:18.773Z,94.67
2022-11-17T18:53:45.736Z,93.91
2022-11-17T18:56:14.603Z,95.45
2022-11-17T18:58:42.649Z,94.10
2022-11-17T19:01:12.771Z,96.82
2022-11-17T19:03:40.296Z,97.92
2022-11-17T19:06:08.279Z,99.07
2022-11-17T19:08:35.922Z,99.30
2022-11-17T19:11:06.261Z,100.00
2022-11-17T19:13:35.450Z,98.90
2022-11-17T19:16:21.538Z,98.47
2022-11-17T19:18:50.229Z,98.53
2022-11-17T19:21:21.185Z,98.57
2022-11-17T19:23:52.462Z,98.50
2022-11-17T19:26:22.377Z,98.85
2022-11-17T19:28:49.602Z,98.86
2022-11-17T19:31:18.994Z,98.81
2022-11-17T19:33:47.289Z,97.24
2022-11-17T19:36:16.013Z,97.17
2022-11-17T19:38:45.395Z,97.36
2022-11-17T19:41:14.284Z,96.37
2022-11-17T19:43:45.112Z,96.09
2022-11-17T19:46:14.979Z,97.98
2022-11-17T19:48:42.951Z,97.19
2022-11-17T19:51:12.740Z,97.34
2022-11-17T19:53:39.765Z,98.97
2022-11-17T19:56:06.909Z,98.39
2022-11-17T19:58:33.945Z,97.26
2022-11-17T20:01:08.509Z,94.88
2022-11-17T20:03:35.985Z,95.73
2022-11-17T20:06:03.137Z,95.21
2022-11-17T20:08:30.308Z,95.99
2022-11-17T20:11:27.345Z,96.32
2022-11-17T20:13:55.259Z,96.48
2022-11-17T20:16:24.876Z,96.66
2022-11-17T20:18:59.456Z,98.65
2022-11-17T20:21:27.970Z,98.37
2022-11-17T20:23:55.390Z,98.70
2022-11-17T20:26:24.423Z,99.87
2022-11-17T20:28:52.263Z,99.94
2022-11-17T20:31:21.123Z,100.00
2022-11-17T20:33:48.928Z,99.89
2022-11-17T20:36:18.388Z,98.73
2022-11-17T20:38:45.693Z,98.65
2022-11-17T20:41:12.404Z,98.07
2022-11-17T20:43:39.080Z,98.96
2022-11-17T20:46:06.000Z,100.00
2022-11-17T20:48:35.339Z,100.00
2022-11-17T20:51:07.373Z,100.00
2022-11-17T20:53:34.360Z,100.00
2022-11-17T20:56:02.977Z,100.00
2022-11-17T20:58:30.307Z,100.00
2022-11-17T21:00:57.084Z,100.00
2022-11-17T21:03:25.887Z,100.00
2022-11-17T21:06:00.258Z,100.00
2022-11-17T21:08:29.353Z,100.00
2022-11-17T21:11:35.966Z,100.00
2022-11-17T21:14:04.326Z,100.00
2022-11-17T21:16:31.361Z,100.00
2022-11-17T21:18:58.878Z,100.00
2022-11-17T21:21:25.755Z,100.00
2022-11-17T21:23:54.199Z,100.00
2022-11-17T21:26:22.870Z,100.00
2022-11-17T21:28:50.195Z,100.00
2022-11-17T21:31:23.638Z,100.00
2022-11-17T21:34:02.199Z,100.00
2022-11-17T21:36:31.280Z,100.00
2022-11-17T21:38:58.635Z,100.00
2022-11-17T21:41:27.877Z,100.00
2022-11-17T21:43:58.098Z,100.00
2022-11-17T21:46:27.134Z,100.00
2022-11-17T21:48:57.527Z,100.00
2022-11-17T21:51:33.515Z,100.00
2022-11-17T21:54:05.689Z,100.00
2022-11-17T21:56:32.688Z,100.00
2022-11-17T21:59:05.191Z,100.00
2022-11-17T22:01:33.009Z,100.00
2022-11-17T22:04:00.121Z,100.00
2022-11-17T22:06:27.414Z,100.00
2022-11-17T22:08:56.030Z,100.00
2022-11-17T22:11:37.656Z,100.00
2022-11-17T22:14:15.768Z,100.00
2022-11-17T22:16:45.059Z,100.00
2022-11-17T22:19:12.894Z,100.00
2022-11-17T22:21:39.950Z,100.00
2022-11-17T22:24:09.985Z,100.00
2022-11-17T22:26:38.439Z,100.00
2022-11-17T22:29:07.473Z,100.00
2022-11-17T22:31:34.451Z,100.00
2022-11-17T22:34:01.165Z,100.00
2022-11-17T22:36:27.963Z,100.00
2022-11-17T22:38:54.602Z,100.00
2022-11-17T22:41:22.738Z,100.00
2022-11-17T22:43:54.102Z,100.00
2022-11-17T22:46:22.598Z,100.00
2022-11-17T22:48:49.464Z,100.00
2022-11-17T22:51:35.332Z,100.00
2022-11-17T22:54:02.453Z,100.00
2022-11-17T22:56:29.192Z,100.00
2022-11-17T22:58:59.634Z,100.00
2022-11-17T23:01:26.850Z,100.00
2022-11-17T23:03:53.566Z,100.00
2022-11-17T23:06:20.324Z,100.00
2022-11-17T23:08:46.966Z,100.00
2022-11-17T23:14:00.717Z,100.00
2022-11-17T23:16:27.478Z,100.00
2022-11-17T23:18:55.808Z,100.00
2022-11-17T23:21:23.150Z,100.00
2022-11-17T23:23:49.865Z,100.00
2022-11-17T23:26:16.639Z,100.00
2022-11-17T23:28:44.466Z,100.00
2022-11-17T23:31:13.706Z,100.00
2022-11-17T23:33:42.975Z,100.00
2022-11-17T23:36:15.840Z,100.00
2022-11-17T23:38:42.738Z,100.00
2022-11-17T23:41:12.666Z,100.00
2022-11-17T23:43:39.718Z,100.00
2022-11-17T23:46:14.595Z,100.00
2022-11-17T23:48:41.981Z,100.00
2022-11-17T23:51:20.628Z,100.00
2022-11-17T23:53:49.344Z,100.00
2022-11-17T23:56:17.341Z,100.00
2022-11-17T23:58:44.267Z,100.00
